Time;durP1;ratioP1;P1;durP2;ratioP2;P2;SDS_P1;SDS_P2;PMS_P1;PMS_P2;Temp;Humidity;BMP_temperature;BMP_pressure;BME280_temperature;BME280_humidity;BME280_pressure;Samples;Min_cycle;Max_cycle;Signal;HPM_P1;HPM_P2
2021/01/20 00:01:46;;;;;;;2.63;1.50;;;3.70;99.90;;;;;;4990178;28;20090;-77
2021/01/20 00:04:11;;;;;;;1.65;1.33;;;3.70;99.90;;;;;;4979172;28;20023;-78
2021/01/20 00:06:37;;;;;;;2.28;1.38;;;3.60;99.90;;;;;;4982411;28;20030;-77
2021/01/20 00:09:03;;;;;;;1.13;1.00;;;3.60;99.90;;;;;;4992590;28;20034;-77
2021/01/20 00:11:29;;;;;;;1.63;1.52;;;3.80;99.90;;;;;;4989874;28;20030;-78
2021/01/20 00:13:55;;;;;;;3.58;1.45;;;3.80;99.90;;;;;;4989418;28;20518;-77
2021/01/20 00:16:21;;;;;;;2.35;1.30;;;4.00;99.90;;;;;;4995135;28;20042;-78
2021/01/20 00:18:46;;;;;;;1.17;1.08;;;4.00;99.90;;;;;;4989720;28;20039;-76
2021/01/20 00:21:12;;;;;;;1.75;1.38;;;4.10;99.90;;;;;;4995678;28;20030;-77
2021/01/20 00:23:38;;;;;;;1.40;1.30;;;4.20;99.90;;;;;;4981675;28;20117;-75
2021/01/20 00:26:04;;;;;;;1.85;1.30;;;4.30;99.90;;;;;;4985202;28;20041;-76
2021/01/20 00:28:29;;;;;;;1.83;1.40;;;4.30;99.90;;;;;;4982956;28;20033;-76
2021/01/20 00:30:56;;;;;;;1.55;0.95;;;4.30;99.90;;;;;;4988923;28;20038;-77
2021/01/20 00:33:25;;;;;;;2.88;1.30;;;4.40;99.90;;;;;;4981377;28;20027;-75
2021/01/20 00:35:53;;;;;;;1.75;1.55;;;4.50;99.90;;;;;;4984493;28;20023;-77
2021/01/20 00:38:19;;;;;;;2.58;1.63;;;4.40;99.90;;;;;;4978623;28;20034;-78
2021/01/20 00:40:45;;;;;;;2.55;1.73;;;4.30;99.90;;;;;;4977906;28;20023;-76
2021/01/20 00:43:10;;;;;;;1.90;1.33;;;4.20;99.90;;;;;;4976517;28;20108;-76
2021/01/20 00:45:36;;;;;;;1.70;1.27;;;4.10;99.90;;;;;;4991178;28;20038;-76
2021/01/20 00:48:02;;;;;;;1.92;1.73;;;4.00;99.90;;;;;;4996437;28;20162;-76
2021/01/20 00:50:27;;;;;;;1.83;1.10;;;3.90;99.90;;;;;;5005365;28;20082;-76
2021/01/20 00:52:53;;;;;;;1.13;1.02;;;3.80;99.90;;;;;;5002669;28;20035;-76
2021/01/20 00:55:18;;;;;;;1.83;1.45;;;3.90;99.90;;;;;;4985610;28;20046;-78
2021/01/20 00:57:44;;;;;;;2.72;2.13;;;3.90;99.90;;;;;;4996644;28;20064;-76
2021/01/20 01:00:11;;;;;;;1.55;1.08;;;3.90;99.90;;;;;;4985800;28;20029;-77
2021/01/20 01:02:37;;;;;;;1.40;1.30;;;3.80;99.90;;;;;;4986598;28;20031;-78
2021/01/20 01:05:04;;;;;;;2.33;1.20;;;3.70;99.90;;;;;;4984635;28;20510;-76
2021/01/20 01:07:29;;;;;;;2.22;2.03;;;3.70;99.90;;;;;;4994168;28;20040;-76
2021/01/20 01:09:55;;;;;;;1.33;1.00;;;3.70;99.90;;;;;;4990952;28;20117;-76
2021/01/20 01:12:20;;;;;;;1.42;1.33;;;3.60;99.90;;;;;;4986210;28;20033;-76
2021/01/20 01:14:46;;;;;;;2.78;1.70;;;3.50;99.90;;;;;;4991152;28;20040;-76
2021/01/20 01:17:12;;;;;;;1.63;1.40;;;3.40;1.00;;;;;;4993465;28;20030;-75
2021/01/20 01:19:38;;;;;;;2.05;1.08;;;3.40;1.00;;;;;;4992091;28;20033;-76
2021/01/20 01:22:03;;;;;;;1.70;1.45;;;3.40;1.00;;;;;;4992644;28;20023;-75
2021/01/20 01:24:29;;;;;;;1.30;1.17;;;3.40;1.00;;;;;;4990311;28;20027;-76
2021/01/20 01:26:55;;;;;;;1.70;1.50;;;3.50;1.00;;;;;;4992555;28;20019;-76
2021/01/20 01:29:20;;;;;;;1.42;1.30;;;3.60;1.00;;;;;;4991681;28;20047;-77
2021/01/20 01:31:46;;;;;;;1.30;1.10;;;3.60;1.00;;;;;;4988972;28;20035;-75
2021/01/20 01:34:12;;;;;;;1.45;1.17;;;3.60;1.00;;;;;;4987127;28;20033;-75
2021/01/20 01:36:38;;;;;;;2.30;1.30;;;3.60;1.00;;;;;;4995780;28;20031;-76
2021/01/20 01:39:04;;;;;;;1.55;1.15;;;3.60;1.00;;;;;;4993046;28;20029;-76
2021/01/20 01:41:30;;;;;;;2.05;1.30;;;3.60;1.00;;;;;;4989825;28;20023;-76
2021/01/20 01:43:56;;;;;;;1.92;1.60;;;3.80;1.00;;;;;;4994512;28;20514;-76
2021/01/20 01:46:21;;;;;;;1.98;1.10;;;3.70;1.00;;;;;;4996143;28;20033;-76
2021/01/20 01:48:47;;;;;;;1.75;1.45;;;3.70;1.00;;;;;;4994621;28;20034;-76
2021/01/20 01:51:12;;;;;;;3.28;1.15;;;3.70;1.00;;;;;;4993394;28;20030;-76
2021/01/20 01:53:38;;;;;;;1.27;1.17;;;3.60;1.00;;;;;;4984237;28;20039;-78
2021/01/20 01:56:04;;;;;;;2.42;1.80;;;3.60;1.00;;;;;;4986968;28;20069;-76
2021/01/20 01:58:31;;;;;;;2.05;1.35;;;3.60;1.00;;;;;;4994114;28;20435;-76
2021/01/20 02:00:57;;;;;;;1.15;1.00;;;3.50;1.00;;;;;;4995021;28;20030;-78
2021/01/20 02:03:22;;;;;;;2.28;1.15;;;3.70;1.00;;;;;;4990943;28;20026;-76
2021/01/20 02:05:48;;;;;;;1.55;1.33;;;3.90;1.00;;;;;;4992605;28;20405;-76
2021/01/20 02:08:14;;;;;;;2.10;1.20;;;4.10;99.90;;;;;;5045196;23;20130;-74
2021/01/20 02:10:40;;;;;;;1.67;0.95;;;4.30;99.90;;;;;;5001042;28;20034;-74
2021/01/20 02:13:27;;;;;;;2.03;1.40;;;4.40;99.90;;;;;;4999421;28;20475;-75
2021/01/20 02:16:17;;;;;;;1.48;1.30;;;4.40;99.90;;;;;;4996578;28;20542;-74
2021/01/20 02:18:48;;;;;;;1.20;1.10;;;4.40;99.90;;;;;;4971310;28;20074;-74
2021/01/20 02:22:03;;;;;;;1.38;1.05;;;4.30;99.90;;;;;;4983345;28;20087;-73
2021/01/20 02:24:40;;;;;;;1.95;1.10;;;4.30;99.90;;;;;;4970570;28;20035;-73
2021/01/20 02:27:10;;;;;;;1.98;1.38;;;4.40;99.90;;;;;;4971803;28;20158;-73
2021/01/20 02:29:57;;;;;;;1.98;1.45;;;4.40;99.90;;;;;;4965529;28;20046;-75
2021/01/20 02:32:24;;;;;;;1.75;0.93;;;4.30;99.90;;;;;;4968305;28;20776;-74
2021/01/20 02:34:52;;;;;;;2.22;1.20;;;4.30;99.90;;;;;;4971986;28;20162;-75
2021/01/20 02:37:18;;;;;;;1.98;1.38;;;4.30;99.90;;;;;;4972049;28;20118;-73
2021/01/20 02:39:45;;;;;;;2.33;1.48;;;4.40;99.90;;;;;;4969126;28;20050;-75
2021/01/20 02:42:10;;;;;;;1.67;1.33;;;4.40;99.90;;;;;;4978926;28;20034;-75
2021/01/20 02:44:37;;;;;;;1.45;1.15;;;4.60;99.90;;;;;;4972208;28;20031;-75
2021/01/20 02:47:07;;;;;;;1.52;1.10;;;4.50;99.90;;;;;;4975498;28;20034;-73
2021/01/20 02:49:34;;;;;;;2.35;1.23;;;4.50;99.90;;;;;;4972332;28;20419;-75
2021/01/20 02:52:30;;;;;;;2.70;1.40;;;4.50;99.90;;;;;;4974486;28;20045;-75
2021/01/20 02:54:57;;;;;;;1.33;1.10;;;4.50;99.90;;;;;;4968940;28;20081;-75
2021/01/20 02:57:24;;;;;;;2.28;1.23;;;4.60;99.90;;;;;;4970492;28;20023;-75
2021/01/20 02:59:53;;;;;;;1.00;0.80;;;4.50;99.90;;;;;;4980365;28;20023;-75
2021/01/20 03:02:20;;;;;;;1.23;1.13;;;4.40;99.90;;;;;;4970991;28;20034;-74
2021/01/20 03:04:48;;;;;;;2.50;1.10;;;4.40;99.90;;;;;;4971859;28;20030;-73
2021/01/20 03:07:17;;;;;;;1.33;1.23;;;4.40;99.90;;;;;;4976278;28;20039;-73
2021/01/20 03:09:43;;;;;;;1.33;1.00;;;4.30;99.90;;;;;;4983084;28;20478;-73
2021/01/20 03:12:09;;;;;;;2.25;1.60;;;4.30;99.90;;;;;;4980374;28;20038;-74
2021/01/20 03:14:37;;;;;;;1.10;1.00;;;4.40;99.90;;;;;;4967664;28;20027;-73
2021/01/20 03:17:02;;;;;;;1.23;1.05;;;4.30;99.90;;;;;;4981114;28;20054;-74
2021/01/20 03:19:28;;;;;;;0.88;0.80;;;4.20;99.90;;;;;;4972289;28;20106;-73
2021/01/20 03:21:53;;;;;;;3.28;1.38;;;4.20;99.90;;;;;;4982322;28;20038;-72
2021/01/20 03:24:19;;;;;;;1.30;1.20;;;4.20;99.90;;;;;;4983982;28;20038;-73
2021/01/20 03:26:45;;;;;;;1.63;1.15;;;4.10;1.00;;;;;;4983832;28;20077;-73
2021/01/20 03:29:10;;;;;;;1.65;1.50;;;4.10;1.00;;;;;;4989811;28;20118;-73
2021/01/20 03:31:36;;;;;;;1.50;1.02;;;4.20;99.90;;;;;;4979293;28;20026;-74
2021/01/20 03:34:01;;;;;;;1.75;1.42;;;4.10;1.00;;;;;;4975979;28;20054;-74
2021/01/20 03:36:27;;;;;;;1.73;1.02;;;4.00;1.00;;;;;;4980123;28;20031;-73
2021/01/20 03:38:53;;;;;;;1.73;1.10;;;3.90;1.00;;;;;;4967596;28;20038;-73
2021/01/20 03:41:19;;;;;;;1.35;1.02;;;3.90;1.00;;;;;;4969398;28;20031;-73
2021/01/20 03:43:45;;;;;;;1.23;1.13;;;3.90;1.00;;;;;;4970710;28;20026;-74
2021/01/20 03:46:10;;;;;;;1.10;1.00;;;4.10;1.00;;;;;;4966065;28;20131;-74
2021/01/20 03:48:36;;;;;;;1.75;0.93;;;4.00;1.00;;;;;;4979562;28;20027;-74
2021/01/20 03:51:02;;;;;;;1.35;1.05;;;4.00;1.00;;;;;;4979252;28;20051;-74
2021/01/20 03:53:27;;;;;;;3.28;1.38;;;4.10;1.00;;;;;;4978486;28;20027;-75
2021/01/20 03:55:53;;;;;;;1.85;1.02;;;4.10;1.00;;;;;;4980834;28;20038;-74
2021/01/20 03:58:18;;;;;;;0.85;0.85;;;4.10;1.00;;;;;;4977585;28;20024;-74
2021/01/20 04:00:44;;;;;;;1.27;1.00;;;4.20;1.00;;;;;;4979038;28;20035;-73
2021/01/20 04:03:09;;;;;;;1.80;1.70;;;4.20;1.00;;;;;;4982897;28;20034;-73
2021/01/20 04:05:35;;;;;;;1.92;0.95;;;4.20;1.00;;;;;;4985441;28;20035;-74
2021/01/20 04:08:01;;;;;;;1.25;1.10;;;4.30;99.90;;;;;;4975294;28;20087;-74
2021/01/20 04:10:26;;;;;;;2.05;1.33;;;4.30;99.90;;;;;;4977478;28;20031;-74
2021/01/20 04:12:52;;;;;;;1.63;1.30;;;4.30;99.90;;;;;;4969551;28;20384;-73
2021/01/20 04:15:18;;;;;;;1.75;1.40;;;4.30;99.90;;;;;;4962577;28;20055;-73
2021/01/20 04:17:44;;;;;;;2.47;1.15;;;4.30;99.90;;;;;;4970119;28;20023;-74
2021/01/20 04:20:10;;;;;;;2.97;1.20;;;4.30;99.90;;;;;;4968834;28;20023;-74
2021/01/20 04:22:35;;;;;;;1.50;0.95;;;4.30;99.90;;;;;;4968417;28;20037;-74
2021/01/20 04:25:02;;;;;;;1.30;1.10;;;4.30;99.90;;;;;;4972697;28;20038;-74
2021/01/20 04:27:28;;;;;;;1.30;1.20;;;4.30;99.90;;;;;;4965412;28;20054;-73
2021/01/20 04:29:54;;;;;;;1.92;1.35;;;4.30;99.90;;;;;;4963646;28;20045;-74
2021/01/20 04:32:19;;;;;;;1.35;1.23;;;4.20;1.00;;;;;;4969172;28;20055;-75
2021/01/20 04:34:45;;;;;;;1.70;1.17;;;4.10;1.00;;;;;;4970841;28;20034;-73
2021/01/20 04:37:11;;;;;;;3.05;1.80;;;4.20;1.00;;;;;;4961352;28;20236;-73
2021/01/20 04:39:36;;;;;;;3.13;2.10;;;4.20;1.00;;;;;;4972852;28;20026;-74
2021/01/20 04:42:05;;;;;;;1.77;1.38;;;4.20;1.00;;;;;;4972336;28;20372;-73
2021/01/20 04:44:30;;;;;;;1.83;1.33;;;4.20;1.00;;;;;;4968896;28;20054;-74
2021/01/20 04:46:57;;;;;;;1.38;1.25;;;4.20;1.00;;;;;;4964292;28;20050;-75
2021/01/20 04:49:25;;;;;;;1.83;1.10;;;4.20;99.90;;;;;;4969371;28;20023;-74
2021/01/20 04:51:53;;;;;;;2.25;1.23;;;4.30;99.90;;;;;;4971616;28;20058;-73
2021/01/20 04:54:21;;;;;;;1.63;1.20;;;4.20;99.90;;;;;;4964556;28;20035;-74
2021/01/20 04:56:47;;;;;;;1.92;1.40;;;4.20;99.90;;;;;;4968847;28;20035;-75
2021/01/20 04:59:13;;;;;;;1.67;1.35;;;4.20;99.90;;;;;;4969899;28;20023;-75
2021/01/20 05:01:40;;;;;;;1.65;0.88;;;4.20;99.90;;;;;;4972822;28;20031;-75
2021/01/20 05:04:09;;;;;;;2.35;1.70;;;4.20;99.90;;;;;;4960534;28;20043;-73
2021/01/20 05:06:35;;;;;;;2.42;1.73;;;4.20;99.90;;;;;;4962618;28;20046;-74
2021/01/20 05:09:00;;;;;;;2.20;1.30;;;4.30;99.90;;;;;;4976822;28;20061;-74
2021/01/20 05:11:40;;;;;;;1.63;1.20;;;4.30;99.90;;;;;;4971158;28;20410;-74
2021/01/20 05:14:32;;;;;;;2.40;1.45;;;4.40;99.90;;;;;;4974807;28;20086;-73
2021/01/20 05:17:07;;;;;;;2.15;1.10;;;4.40;99.90;;;;;;4956483;28;20127;-74
2021/01/20 05:19:38;;;;;;;1.20;1.00;;;4.50;99.90;;;;;;4976622;28;20047;-73
2021/01/20 05:22:09;;;;;;;1.63;1.23;;;4.60;99.90;;;;;;4971757;28;20026;-74
2021/01/20 05:24:35;;;;;;;1.80;1.33;;;4.60;99.90;;;;;;4971926;28;20031;-74
2021/01/20 05:27:02;;;;;;;1.50;1.10;;;4.60;99.90;;;;;;4971273;28;20038;-74
2021/01/20 05:29:29;;;;;;;1.05;1.00;;;4.70;99.90;;;;;;4969559;28;20034;-74
2021/01/20 05:31:54;;;;;;;2.67;1.50;;;4.60;99.90;;;;;;4972245;28;20054;-73
2021/01/20 05:34:36;;;;;;;1.38;1.00;;;4.70;99.90;;;;;;4972185;28;20032;-75
2021/01/20 05:37:03;;;;;;;2.55;1.20;;;4.80;99.90;;;;;;4975051;28;20106;-74
2021/01/20 05:39:30;;;;;;;1.60;1.33;;;4.80;99.90;;;;;;4977144;28;20507;-74
2021/01/20 05:42:12;;;;;;;1.50;1.20;;;4.90;99.90;;;;;;4964305;28;20032;-74
2021/01/20 05:44:39;;;;;;;1.55;1.20;;;4.90;99.90;;;;;;4977051;28;20031;-74
2021/01/20 05:47:12;;;;;;;1.45;1.00;;;5.00;99.90;;;;;;4976200;28;20550;-74
2021/01/20 05:49:38;;;;;;;2.85;1.50;;;5.00;99.90;;;;;;4976040;28;20045;-74
2021/01/20 05:52:13;;;;;;;2.35;1.55;;;4.90;99.90;;;;;;4979580;28;20510;-74
2021/01/20 05:54:40;;;;;;;1.85;1.48;;;5.00;99.90;;;;;;4966547;28;20448;-75
2021/01/20 05:57:14;;;;;;;1.30;1.15;;;5.00;99.90;;;;;;4965165;28;20102;-74
2021/01/20 05:59:41;;;;;;;3.53;1.25;;;5.00;99.90;;;;;;4972219;28;20027;-75
2021/01/20 06:02:08;;;;;;;1.35;1.25;;;5.00;99.90;;;;;;4968234;28;20136;-75
2021/01/20 06:04:35;;;;;;;1.30;1.20;;;5.10;99.90;;;;;;4978439;28;20027;-75
2021/01/20 06:07:06;;;;;;;1.98;1.30;;;5.20;99.90;;;;;;4974588;28;20113;-73
2021/01/20 06:09:43;;;;;;;1.75;1.30;;;5.10;99.90;;;;;;4971415;28;20519;-73
2021/01/20 06:12:13;;;;;;;1.30;1.20;;;5.20;99.90;;;;;;4970985;28;20060;-76
2021/01/20 06:14:40;;;;;;;2.00;1.63;;;5.20;99.90;;;;;;4961391;28;20028;-74
2021/01/20 06:17:14;;;;;;;1.35;1.20;;;5.20;99.90;;;;;;4974832;28;20046;-74
2021/01/20 06:20:01;;;;;;;5.68;1.40;;;5.10;99.90;;;;;;4974068;28;20030;-74
2021/01/20 06:22:27;;;;;;;2.25;1.48;;;5.10;99.90;;;;;;4975370;28;20109;-74
2021/01/20 06:25:01;;;;;;;1.77;1.20;;;5.10;99.90;;;;;;4971152;28;20499;-74
2021/01/20 06:27:39;;;;;;;2.38;1.40;;;5.00;99.90;;;;;;4967847;28;20035;-74
2021/01/20 06:30:16;;;;;;;1.80;1.30;;;5.00;99.90;;;;;;4968376;28;20034;-75
2021/01/20 06:32:44;;;;;;;1.75;1.58;;;4.90;99.90;;;;;;4971320;28;20031;-74
2021/01/20 06:35:10;;;;;;;2.05;1.40;;;5.00;99.90;;;;;;4968508;28;20047;-73
2021/01/20 06:37:37;;;;;;;2.67;1.83;;;5.00;99.90;;;;;;4970823;28;20026;-74
2021/01/20 06:40:23;;;;;;;2.17;1.20;;;4.90;99.90;;;;;;4951677;28;20492;-74
2021/01/20 06:42:50;;;;;;;4.68;2.25;;;4.80;99.90;;;;;;4954565;28;20441;-74
2021/01/20 06:45:19;;;;;;;2.60;2.15;;;4.90;99.90;;;;;;4967476;28;20031;-75
2021/01/20 06:47:59;;;;;;;2.55;2.08;;;4.80;99.90;;;;;;4974275;28;20022;-75
2021/01/20 06:50:33;;;;;;;3.58;1.98;;;4.80;99.90;;;;;;4971132;28;20023;-75
2021/01/20 06:53:08;;;;;;;3.75;2.30;;;4.80;99.90;;;;;;4978919;28;20028;-74
2021/01/20 06:55:35;;;;;;;5.05;2.17;;;4.90;99.90;;;;;;4974996;28;20411;-73
2021/01/20 06:58:19;;;;;;;3.70;2.20;;;4.90;99.90;;;;;;4964619;28;20114;-75
2021/01/20 07:01:12;;;;;;;5.95;2.30;;;4.90;99.90;;;;;;4955906;28;20118;-74
2021/01/20 07:03:45;;;;;;;2.33;1.50;;;4.90;99.90;;;;;;4967322;28;20031;-74
2021/01/20 07:06:33;;;;;;;4.40;2.15;;;5.00;99.90;;;;;;4969083;28;20034;-74
2021/01/20 07:08:59;;;;;;;2.65;2.17;;;5.00;99.90;;;;;;4961002;28;20039;-75
2021/01/20 07:11:24;;;;;;;4.30;1.60;;;5.20;99.90;;;;;;4956630;28;20372;-75
2021/01/20 07:13:50;;;;;;;2.58;1.77;;;5.20;99.90;;;;;;4964530;28;20031;-74
2021/01/20 07:16:17;;;;;;;8.52;2.30;;;5.20;99.90;;;;;;4960299;28;20046;-74
2021/01/20 07:18:50;;;;;;;4.55;1.90;;;5.00;99.90;;;;;;4968077;28;20062;-75
2021/01/20 07:21:16;;;;;;;3.83;2.30;;;5.00;99.90;;;;;;4966278;28;20119;-75
2021/01/20 07:23:42;;;;;;;3.60;1.90;;;4.90;99.90;;;;;;4969425;28;20054;-75
2021/01/20 07:26:09;;;;;;;3.92;2.10;;;4.90;99.90;;;;;;4964156;28;20391;-75
2021/01/20 07:28:36;;;;;;;3.97;2.05;;;4.80;99.90;;;;;;4964675;28;20098;-75
2021/01/20 07:31:10;;;;;;;4.45;2.22;;;4.80;99.90;;;;;;4971687;28;20118;-74
2021/01/20 07:33:39;;;;;;;2.92;2.40;;;4.70;99.90;;;;;;4966309;28;20128;-74
2021/01/20 07:36:17;;;;;;;4.75;2.40;;;4.70;99.90;;;;;;4967964;28;20042;-75
2021/01/20 07:38:47;;;;;;;7.72;2.65;;;4.80;99.90;;;;;;4959973;28;20031;-74
2021/01/20 07:41:26;;;;;;;6.25;2.78;;;4.80;99.90;;;;;;4974270;28;20082;-74
2021/01/20 07:44:05;;;;;;;2.60;2.40;;;4.80;99.90;;;;;;4973301;28;20035;-75
2021/01/20 07:46:31;;;;;;;3.67;2.17;;;4.80;99.90;;;;;;4958679;28;20122;-75
2021/01/20 07:48:57;;;;;;;3.13;2.55;;;4.80;99.90;;;;;;4967416;28;20164;-75
2021/01/20 07:51:23;;;;;;;3.78;2.90;;;4.80;99.90;;;;;;4969141;28;20538;-75
2021/01/20 07:53:58;;;;;;;5.15;2.58;;;4.80;99.90;;;;;;4966714;28;20035;-76
2021/01/20 07:56:24;;;;;;;4.22;2.70;;;4.90;99.90;;;;;;4957891;28;20097;-74
2021/01/20 07:58:50;;;;;;;6.88;2.35;;;4.90;99.90;;;;;;4969310;28;20495;-74
2021/01/20 08:01:26;;;;;;;2.63;2.17;;;5.00;99.90;;;;;;4955844;28;20074;-74
2021/01/20 08:03:52;;;;;;;3.88;2.50;;;5.00;99.90;;;;;;4957433;28;20420;-74
2021/01/20 08:06:17;;;;;;;9.63;2.60;;;5.10;99.90;;;;;;4965015;28;20029;-73
2021/01/20 08:08:50;;;;;;;4.90;2.25;;;5.10;99.90;;;;;;5030574;23;20081;-75
2021/01/20 08:11:16;;;;;;;5.35;2.33;;;5.20;99.90;;;;;;5016923;28;20014;-76
2021/01/20 08:13:42;;;;;;;6.63;2.90;;;5.30;99.90;;;;;;5019224;28;20142;-76
2021/01/20 08:16:08;;;;;;;5.30;3.22;;;5.30;78.20;;;;;;5038003;28;20042;-74
2021/01/20 08:18:35;;;;;;;3.72;2.80;;;5.40;99.90;;;;;;5038936;28;20037;-75
2021/01/20 08:21:01;;;;;;;5.40;3.13;;;5.50;36.70;;;;;;5028984;28;20025;-73
2021/01/20 08:23:30;;;;;;;4.30;2.80;;;5.50;33.90;;;;;;5008102;28;20087;-75
2021/01/20 08:26:06;;;;;;;3.08;2.25;;;5.50;6.50;;;;;;5017315;28;20034;-76
2021/01/20 08:28:32;;;;;;;4.38;2.60;;;5.60;1.00;;;;;;5028220;28;20125;-76
2021/01/20 08:30:58;;;;;;;2.75;2.13;;;5.70;1.00;;;;;;5029910;28;20021;-74
2021/01/20 08:33:23;;;;;;;4.85;3.13;;;5.80;1.00;;;;;;5031150;28;20049;-76
2021/01/20 08:35:57;;;;;;;5.80;3.20;;;5.80;1.00;;;;;;5021661;28;20034;-76
2021/01/20 08:38:27;;;;;;;4.00;2.70;;;5.90;1.00;;;;;;5007369;28;20029;-75
2021/01/20 08:41:13;;;;;;;4.17;2.93;;;5.80;1.00;;;;;;5010715;28;20389;-76
2021/01/20 08:43:38;;;;;;;3.67;2.20;;;5.90;1.00;;;;;;5014594;28;20029;-76
2021/01/20 08:46:24;;;;;;;3.45;2.00;;;6.00;1.00;;;;;;5013249;28;20454;-76
2021/01/20 08:48:58;;;;;;;4.82;2.45;;;6.10;99.90;;;;;;5008098;28;20053;-76
2021/01/20 08:51:27;;;;;;;4.10;2.10;;;6.30;1.00;;;;;;5012891;28;20036;-76
2021/01/20 08:53:52;;;;;;;4.68;1.85;;;6.30;99.90;;;;;;5007858;28;20022;-77
2021/01/20 08:56:25;;;;;;;3.08;1.80;;;6.50;99.90;;;;;;5005951;28;20375;-76
2021/01/20 08:58:55;;;;;;;3.22;1.85;;;6.60;99.90;;;;;;5008279;28;20026;-77
2021/01/20 09:01:26;;;;;;;7.15;2.33;;;6.60;99.90;;;;;;5001058;28;20438;-77
2021/01/20 09:04:05;;;;;;;4.20;2.00;;;6.60;99.90;;;;;;5014090;28;20398;-77
2021/01/20 09:06:31;;;;;;;10.07;1.85;;;6.60;54.80;;;;;;5008850;28;20056;-76
2021/01/20 09:08:57;;;;;;;8.60;2.53;;;6.60;99.90;;;;;;5009919;28;20038;-76
2021/01/20 09:11:23;;;;;;;10.85;2.67;;;6.60;70.80;;;;;;5011413;28;20092;-76
2021/01/20 09:13:54;;;;;;;3.47;2.67;;;6.60;99.90;;;;;;5008513;28;20045;-76
2021/01/20 09:16:29;;;;;;;7.95;3.53;;;6.70;72.80;;;;;;5013342;28;20033;-76
2021/01/20 09:18:56;;;;;;;4.63;3.60;;;6.60;99.90;;;;;;5009416;28;20084;-77
2021/01/20 09:21:21;;;;;;;5.22;3.72;;;6.60;99.90;;;;;;5022202;28;20026;-75
2021/01/20 09:23:51;;;;;;;8.82;4.65;;;6.50;99.90;;;;;;5011732;28;20025;-76
2021/01/20 09:26:17;;;;;;;6.28;4.40;;;6.30;99.90;;;;;;5010439;28;20033;-76
2021/01/20 09:28:42;;;;;;;7.50;3.72;;;6.20;99.90;;;;;;5012505;28;20030;-76
2021/01/20 09:31:08;;;;;;;5.93;3.72;;;6.10;99.90;;;;;;5013612;28;20061;-77
2021/01/20 09:33:34;;;;;;;4.63;3.22;;;6.20;99.90;;;;;;5010757;28;20045;-76
2021/01/20 09:36:00;;;;;;;5.22;3.20;;;6.10;99.90;;;;;;5015442;28;20090;-76
2021/01/20 09:38:26;;;;;;;7.25;4.05;;;6.20;99.90;;;;;;5018849;28;20030;-77
2021/01/20 09:40:52;;;;;;;6.35;3.08;;;6.30;99.90;;;;;;5015008;28;20049;-76
2021/01/20 09:43:20;;;;;;;5.47;3.05;;;6.30;99.90;;;;;;5013773;28;20454;-77
2021/01/20 09:45:46;;;;;;;8.32;2.83;;;6.30;99.90;;;;;;5003397;28;20034;-77
2021/01/20 09:48:13;;;;;;;7.55;3.08;;;6.60;85.40;;;;;;5011254;28;20056;-76
2021/01/20 09:50:38;;;;;;;5.38;3.60;;;6.70;62.90;;;;;;5012068;28;20096;-77
2021/01/20 09:53:05;;;;;;;7.20;3.08;;;6.90;16.90;;;;;;5016799;28;20049;-77
2021/01/20 09:55:31;;;;;;;10.13;2.75;;;7.20;99.90;;;;;;5004598;28;20073;-77
2021/01/20 09:58:02;;;;;;;7.20;2.70;;;7.30;99.90;;;;;;5004673;28;20022;-77
2021/01/20 10:00:28;;;;;;;11.75;3.30;;;7.40;99.90;;;;;;5013766;28;20359;-78
2021/01/20 10:02:53;;;;;;;7.60;3.38;;;7.40;99.90;;;;;;5012413;28;20052;-77
2021/01/20 10:05:19;;;;;;;4.22;2.80;;;7.30;99.90;;;;;;5021208;28;20021;-77
2021/01/20 10:07:44;;;;;;;3.75;3.10;;;7.20;99.90;;;;;;5022978;28;20030;-76
2021/01/20 10:10:13;;;;;;;4.30;3.00;;;7.10;1.00;;;;;;5021399;28;20029;-76
2021/01/20 10:12:39;;;;;;;14.02;2.67;;;7.10;1.00;;;;;;5019675;28;20084;-77
2021/01/20 10:15:06;;;;;;;9.23;3.17;;;7.20;1.00;;;;;;5013985;28;20100;-77
2021/01/20 10:17:32;;;;;;;6.97;2.72;;;7.20;1.00;;;;;;5019191;28;20022;-77
2021/01/20 10:19:58;;;;;;;8.50;3.35;;;7.20;1.00;;;;;;5012990;28;20031;-77
2021/01/20 10:22:24;;;;;;;6.57;3.50;;;7.40;99.90;;;;;;5012360;28;20036;-77
2021/01/20 10:24:50;;;;;;;7.53;3.85;;;7.30;99.90;;;;;;5012152;28;20036;-77
2021/01/20 10:27:16;;;;;;;11.32;3.72;;;7.20;1.00;;;;;;5016338;28;20125;-77
2021/01/20 10:29:41;;;;;;;13.75;3.97;;;7.10;1.00;;;;;;5010423;28;20026;-78
2021/01/20 10:32:07;;;;;;;12.10;3.88;;;7.10;1.00;;;;;;5018750;28;20030;-77
2021/01/20 10:34:33;;;;;;;11.30;5.28;;;7.00;76.20;;;;;;5017836;28;20034;-76
2021/01/20 10:36:59;;;;;;;6.38;4.40;;;7.10;1.00;;;;;;5017295;28;20505;-76
2021/01/20 10:39:24;;;;;;;6.53;4.40;;;7.00;1.00;;;;;;5013579;28;20033;-77
2021/01/20 10:41:52;;;;;;;14.25;4.30;;;7.00;11.50;;;;;;5018025;28;20501;-77
2021/01/20 10:44:18;;;;;;;10.73;4.50;;;7.00;25.30;;;;;;5018828;28;20033;-77
2021/01/20 10:46:43;;;;;;;7.22;5.30;;;7.10;1.00;;;;;;5007424;28;20029;-78
2021/01/20 10:49:09;;;;;;;12.10;5.72;;;7.20;1.00;;;;;;5010527;28;20026;-77
2021/01/20 10:51:35;;;;;;;5.57;4.57;;;7.30;1.00;;;;;;5011647;28;20444;-76
2021/01/20 10:54:04;;;;;;;11.60;4.38;;;7.20;1.00;;;;;;5013575;28;20030;-78
2021/01/20 10:56:30;;;;;;;7.95;4.30;;;7.10;23.20;;;;;;5012305;28;20022;-76
2021/01/20 10:58:56;;;;;;;7.45;3.90;;;7.20;1.00;;;;;;5015366;28;20022;-76
2021/01/20 11:01:22;;;;;;;8.80;3.78;;;7.30;1.00;;;;;;5008386;28;20204;-77
2021/01/20 11:03:47;;;;;;;9.90;3.58;;;7.40;99.90;;;;;;5014036;28;20035;-77
2021/01/20 11:06:13;;;;;;;7.30;3.20;;;7.50;99.90;;;;;;5011332;28;20033;-77
2021/01/20 11:08:39;;;;;;;8.20;3.00;;;7.40;99.90;;;;;;5007769;28;20037;-77
2021/01/20 11:11:05;;;;;;;3.10;2.70;;;7.60;99.90;;;;;;5009633;28;20085;-77
2021/01/20 11:13:30;;;;;;;5.13;2.83;;;7.70;1.00;;;;;;5006284;28;20029;-79
2021/01/20 11:15:56;;;;;;;12.80;3.13;;;7.70;1.00;;;;;;5006510;28;20081;-77
2021/01/20 11:18:22;;;;;;;3.80;2.70;;;8.00;99.90;;;;;;5016194;28;20055;-77
2021/01/20 11:20:48;;;;;;;6.35;2.53;;;8.10;1.00;;;;;;5007326;28;20029;-76
2021/01/20 11:23:18;;;;;;;6.07;2.72;;;8.10;1.00;;;;;;5016723;28;20029;-77
2021/01/20 11:25:50;;;;;;;5.43;2.47;;;8.00;19.50;;;;;;5013128;28;20038;-77
2021/01/20 11:28:19;;;;;;;3.78;2.40;;;8.40;99.90;;;;;;5008673;28;20034;-76
2021/01/20 11:30:45;;;;;;;15.77;3.13;;;8.70;99.90;;;;;;5011934;28;20084;-77
2021/01/20 11:33:11;;;;;;;4.47;2.80;;;8.60;99.90;;;;;;5018298;28;20069;-76
2021/01/20 11:35:38;;;;;;;5.10;2.70;;;8.50;99.90;;;;;;5018375;28;20040;-78
2021/01/20 11:38:05;;;;;;;8.82;2.78;;;8.40;1.00;;;;;;5019967;28;20060;-76
2021/01/20 11:40:32;;;;;;;8.65;2.70;;;8.70;99.90;;;;;;5004266;28;20030;-77
2021/01/20 11:43:00;;;;;;;4.47;2.40;;;8.80;1.00;;;;;;5015986;28;20528;-76
2021/01/20 11:45:26;;;;;;;6.68;2.65;;;8.80;99.90;;;;;;5030278;28;20030;-77
2021/01/20 11:47:52;;;;;;;4.95;2.63;;;8.80;1.00;;;;;;5012484;28;20037;-77
2021/01/20 11:50:18;;;;;;;14.95;3.00;;;8.80;96.00;;;;;;5009959;28;20030;-77
2021/01/20 11:52:43;;;;;;;5.22;4.03;;;8.70;1.00;;;;;;5009945;28;20029;-75
2021/01/20 11:55:09;;;;;;;5.30;2.67;;;8.60;1.00;;;;;;5007913;28;20117;-77
2021/01/20 11:57:35;;;;;;;8.80;3.10;;;8.50;99.90;;;;;;5012574;28;20042;-79
2021/01/20 12:00:03;;;;;;;7.45;2.63;;;8.30;79.20;;;;;;5020158;28;20033;-74
2021/01/20 12:02:29;;;;;;;3.90;3.08;;;8.30;99.90;;;;;;5011280;28;20524;-79
2021/01/20 12:04:55;;;;;;;16.05;3.65;;;8.20;99.90;;;;;;5008904;28;20029;-80
2021/01/20 12:07:20;;;;;;;4.78;2.50;;;8.40;1.00;;;;;;5017092;28;20042;-76
2021/01/20 12:09:46;;;;;;;6.55;2.85;;;8.40;99.90;;;;;;5020253;28;20037;-77
2021/01/20 12:12:11;;;;;;;5.57;2.25;;;8.30;99.90;;;;;;5000178;28;20080;-78
2021/01/20 12:14:39;;;;;;;3.17;2.80;;;8.30;1.00;;;;;;5008527;28;20042;-77
2021/01/20 12:17:05;;;;;;;3.35;3.05;;;8.40;99.90;;;;;;5008771;28;20054;-76
2021/01/20 12:19:31;;;;;;;5.22;3.22;;;8.40;99.90;;;;;;5008337;28;20023;-76
2021/01/20 12:21:56;;;;;;;8.68;2.75;;;8.30;99.90;;;;;;5018217;28;20029;-76
2021/01/20 12:24:22;;;;;;;6.13;3.08;;;8.40;99.90;;;;;;5010357;28;20486;-76
2021/01/20 12:26:48;;;;;;;3.97;2.90;;;8.50;1.00;;;;;;5021122;28;20026;-76
2021/01/20 12:29:13;;;;;;;3.70;2.47;;;8.60;99.90;;;;;;5009991;28;20114;-77
2021/01/20 12:31:39;;;;;;;8.25;3.05;;;8.50;99.90;;;;;;5008146;28;20030;-76
2021/01/20 12:34:05;;;;;;;9.10;3.08;;;8.40;1.00;;;;;;5008345;28;20038;-77
2021/01/20 12:36:30;;;;;;;6.00;3.90;;;8.50;99.90;;;;;;5016111;28;20391;-79
2021/01/20 12:38:56;;;;;;;8.43;3.45;;;8.60;99.90;;;;;;5007942;28;20029;-74
2021/01/20 12:41:21;;;;;;;8.52;4.47;;;8.50;99.90;;;;;;5012042;28;20026;-77
2021/01/20 12:43:47;;;;;;;13.52;4.68;;;8.80;1.00;;;;;;5005847;28;20042;-77
2021/01/20 12:46:13;;;;;;;11.82;4.95;;;9.00;1.00;;;;;;5022075;28;20091;-74
2021/01/20 12:48:38;;;;;;;8.18;4.38;;;9.00;99.90;;;;;;5006495;28;20064;-76
2021/01/20 12:51:04;;;;;;;8.38;4.53;;;8.80;24.90;;;;;;5022194;28;20026;-75
2021/01/20 12:53:30;;;;;;;21.52;5.25;;;8.60;99.90;;;;;;5009948;28;20072;-76
2021/01/20 12:55:55;;;;;;;14.35;5.07;;;8.40;1.00;;;;;;5013816;28;20030;-79
2021/01/20 12:58:22;;;;;;;11.70;4.57;;;8.40;99.90;;;;;;5006492;28;20022;-77
2021/01/20 13:00:48;;;;;;;13.73;5.53;;;8.30;1.00;;;;;;5013319;28;20048;-75
2021/01/20 13:03:13;;;;;;;12.30;4.97;;;8.30;1.00;;;;;;5017215;28;20026;-75
2021/01/20 13:05:39;;;;;;;13.55;5.50;;;8.30;1.00;;;;;;4999792;28;20081;-75